createdAt,value
2023-05-22T04:00:30.372Z,7.40
2023-05-22T04:05:30.485Z,8.60
2023-05-22T04:10:30.245Z,9.00
2023-05-22T04:15:37.283Z,8.90
2023-05-22T04:20:30.148Z,8.80
2023-05-22T04:25:30.111Z,8.80
2023-05-22T04:30:30.111Z,9.60
2023-05-22T04:35:29.995Z,10.50
2023-05-22T04:40:29.920Z,9.70
2023-05-22T04:45:29.880Z,9.30
2023-05-22T04:50:29.810Z,9.30
2023-05-22T04:55:29.788Z,10.00
2023-05-22T05:00:29.694Z,9.40
2023-05-22T05:05:29.674Z,10.20
2023-05-22T05:10:29.613Z,10.50
2023-05-22T05:15:29.619Z,10.70
2023-05-22T05:20:29.633Z,9.90
2023-05-22T05:25:29.459Z,10.50
2023-05-22T05:30:29.361Z,11.50
2023-05-22T05:35:29.376Z,12.20
2023-05-22T05:40:29.283Z,11.20
2023-05-22T05:45:29.213Z,11.20
2023-05-22T05:50:29.166Z,10.60
2023-05-22T05:55:29.122Z,11.00
2023-05-22T06:00:29.064Z,10.90
2023-05-22T06:05:29.076Z,11.20
2023-05-22T06:10:28.930Z,11.60
2023-05-22T06:15:28.951Z,12.70
2023-05-22T06:20:28.876Z,13.70
2023-05-22T06:25:28.902Z,13.80
2023-05-22T06:30:43.720Z,14.40
2023-05-22T06:35:29.727Z,14.60
2023-05-22T06:40:28.643Z,14.50
2023-05-22T06:45:28.570Z,15.80
2023-05-22T06:50:28.553Z,16.90
2023-05-22T06:55:28.654Z,16.70
2023-05-22T07:00:28.413Z,16.70
2023-05-22T07:05:28.397Z,16.80
2023-05-22T07:10:28.349Z,17.70
2023-05-22T07:15:28.290Z,17.90
2023-05-22T07:20:28.241Z,17.40
2023-05-22T07:25:28.144Z,18.40
2023-05-22T07:30:28.071Z,19.40
2023-05-22T07:35:28.083Z,21.80
2023-05-22T07:40:28.020Z,21.80
2023-05-22T07:45:27.938Z,22.50
2023-05-22T07:50:27.872Z,24.00
2023-05-22T07:55:27.864Z,24.90
2023-05-22T08:00:27.791Z,25.20
2023-05-22T08:05:27.725Z,27.50
2023-05-22T08:10:30.016Z,29.70
2023-05-22T08:15:28.751Z,30.30
2023-05-22T08:20:27.593Z,31.40
2023-05-22T08:25:27.492Z,33.00
2023-05-22T08:30:27.424Z,32.70
2023-05-22T08:35:27.557Z,32.80
2023-05-22T08:40:27.311Z,32.70
2023-05-22T08:45:27.270Z,33.40
2023-05-22T08:50:27.219Z,35.50
2023-05-22T08:55:27.341Z,34.90
2023-05-22T09:00:27.131Z,34.20
2023-05-22T09:05:27.079Z,33.10
2023-05-22T09:10:26.999Z,31.60
2023-05-22T09:15:27.111Z,31.90
2023-05-22T09:20:26.984Z,30.70
2023-05-22T09:25:26.861Z,31.20
2023-05-22T09:30:26.793Z,31.00
2023-05-22T09:35:26.981Z,30.80
2023-05-22T09:40:26.702Z,28.60
2023-05-22T09:45:26.629Z,27.30
2023-05-22T09:50:26.579Z,27.00
2023-05-22T09:55:26.530Z,26.90
2023-05-22T10:00:26.466Z,25.40
2023-05-22T10:05:26.778Z,26.10
2023-05-22T10:10:26.349Z,24.90
2023-05-22T10:15:33.503Z,23.30
2023-05-22T10:20:26.242Z,21.90
2023-05-22T10:25:26.219Z,20.90
2023-05-22T10:30:26.150Z,20.50
2023-05-22T10:35:26.228Z,20.00
2023-05-22T10:40:26.958Z,20.10
2023-05-22T10:45:26.033Z,19.70
2023-05-22T10:50:25.928Z,18.30
2023-05-22T10:55:25.992Z,19.00
2023-05-22T11:00:25.823Z,19.20
2023-05-22T11:05:25.834Z,18.60
2023-05-22T11:10:25.713Z,20.10
2023-05-22T11:15:25.819Z,20.60
2023-05-22T11:20:25.863Z,18.90
2023-05-22T11:25:25.567Z,18.50
2023-05-22T11:30:25.509Z,18.90
2023-05-22T11:35:25.579Z,17.60
2023-05-22T11:40:25.450Z,18.30
2023-05-22T11:45:25.381Z,20.40
2023-05-22T11:50:40.955Z,18.50
2023-05-22T11:55:26.426Z,19.90
2023-05-22T12:00:25.201Z,19.60
2023-05-22T12:05:25.147Z,18.00
2023-05-22T12:10:25.068Z,17.50
2023-05-22T12:15:25.140Z,17.60
2023-05-22T12:20:24.982Z,16.00
2023-05-22T12:25:25.011Z,18.00
2023-05-22T12:30:24.898Z,17.80
2023-05-22T12:35:24.964Z,18.00
2023-05-22T12:40:24.774Z,18.00
2023-05-22T12:45:24.709Z,18.90
2023-05-22T12:50:24.693Z,18.40
2023-05-22T12:55:24.710Z,18.70
2023-05-22T13:00:24.568Z,19.10
2023-05-22T13:05:24.666Z,18.40
2023-05-22T13:10:24.456Z,17.60
2023-05-22T13:15:24.605Z,19.20
2023-05-22T13:20:24.344Z,19.70
2023-05-22T13:25:24.282Z,18.80
2023-05-22T13:30:24.233Z,18.70
2023-05-22T13:35:24.339Z,18.30
2023-05-22T13:40:24.170Z,19.20
2023-05-22T13:45:24.089Z,18.50
2023-05-22T13:50:24.048Z,19.50
2023-05-22T13:55:24.099Z,18.30
2023-05-22T14:00:23.910Z,19.30
2023-05-22T14:05:23.860Z,19.50
2023-05-22T14:10:23.806Z,20.90
2023-05-22T14:15:24.323Z,21.30
2023-05-22T14:20:23.702Z,19.80
2023-05-22T14:25:23.644Z,20.00
2023-05-22T14:30:23.605Z,20.80
2023-05-22T14:35:23.673Z,21.10
2023-05-22T14:40:23.493Z,21.20
2023-05-22T14:45:23.446Z,21.20
2023-05-22T14:50:23.406Z,21.90
2023-05-22T14:55:23.353Z,20.70
2023-05-22T15:00:23.304Z,20.10
2023-05-22T15:05:23.419Z,19.50
2023-05-22T15:10:23.171Z,21.50
2023-05-22T15:15:23.163Z,22.00
2023-05-22T15:20:23.074Z,21.80
2023-05-22T15:25:23.039Z,21.00
2023-05-22T15:30:22.972Z,22.00
2023-05-22T15:35:23.024Z,22.40
2023-05-22T15:40:22.885Z,21.60
2023-05-22T15:45:22.937Z,22.80
2023-05-22T15:50:22.751Z,22.40
2023-05-22T15:55:22.822Z,22.50
2023-05-22T16:00:22.673Z,24.50
2023-05-22T16:05:22.621Z,24.70
2023-05-22T16:10:22.566Z,23.10
2023-05-22T16:15:29.634Z,24.10
2023-05-22T16:20:22.717Z,23.60
2023-05-22T16:25:22.375Z,24.50
2023-05-22T16:30:22.320Z,23.40
2023-05-22T16:35:22.396Z,25.10
2023-05-22T16:40:22.221Z,24.40
2023-05-22T16:45:22.162Z,24.10
2023-05-22T16:50:22.112Z,24.90
2023-05-22T16:55:22.178Z,25.30
2023-05-22T17:00:22.015Z,24.30
2023-05-22T17:05:21.966Z,23.00
2023-05-22T17:10:21.914Z,21.80
2023-05-22T17:15:21.973Z,21.40
2023-05-22T17:20:21.789Z,19.80
2023-05-22T17:25:21.756Z,20.40
2023-05-22T17:30:21.682Z,19.90
2023-05-22T17:35:21.759Z,18.50
2023-05-22T17:40:22.558Z,18.90
2023-05-22T17:45:22.531Z,14.30
2023-05-22T17:50:21.481Z,10.80
2023-05-22T17:55:21.542Z,10.70
2023-05-22T18:00:21.364Z,9.40
2023-05-22T18:05:21.312Z,7.90
2023-05-22T18:10:21.256Z,7.80
2023-05-22T18:15:21.327Z,7.90
2023-05-22T18:20:21.169Z,8.30
2023-05-22T18:25:21.098Z,8.50
2023-05-22T18:30:21.042Z,8.20
2023-05-22T18:35:21.112Z,7.70
2023-05-22T18:40:20.932Z,7.70
2023-05-22T18:45:20.882Z,7.90
2023-05-22T18:50:23.339Z,8.10
2023-05-22T18:55:20.893Z,8.30
2023-05-22T19:00:20.719Z,8.00
2023-05-22T19:05:20.667Z,8.20
2023-05-22T19:10:20.609Z,9.10
2023-05-22T19:15:20.684Z,9.30
2023-05-22T19:20:20.500Z,9.60
2023-05-22T19:25:20.439Z,9.50
2023-05-22T19:30:20.394Z,9.50
2023-05-22T19:35:20.458Z,9.50
2023-05-22T19:40:20.298Z,9.00
2023-05-22T19:45:20.214Z,10.10
2023-05-22T19:50:20.182Z,9.50
2023-05-22T19:55:20.250Z,10.40
2023-05-22T20:00:20.067Z,10.20
2023-05-22T20:05:20.035Z,10.30
2023-05-22T20:10:19.954Z,10.70
2023-05-22T20:15:20.023Z,10.10
2023-05-22T20:20:19.848Z,10.40
2023-05-22T20:25:19.792Z,10.40
2023-05-22T20:30:19.754Z,10.90
2023-05-22T20:35:19.804Z,10.20
2023-05-22T20:40:19.638Z,10.10
2023-05-22T20:45:19.609Z,8.50
2023-05-22T20:50:19.532Z,7.90
2023-05-22T20:55:19.602Z,7.40
2023-05-22T21:00:19.421Z,7.00
2023-05-22T21:05:19.378Z,6.60
2023-05-22T21:10:19.307Z,6.50
2023-05-22T21:15:19.385Z,6.20
2023-05-22T21:20:19.209Z,6.00
2023-05-22T21:25:19.152Z,5.80
2023-05-22T21:30:19.099Z,5.70
2023-05-22T21:35:19.166Z,5.20
2023-05-22T21:40:19.003Z,5.80
2023-05-22T21:45:18.954Z,5.30
2023-05-22T21:50:18.896Z,5.30
2023-05-22T21:55:18.949Z,5.60
2023-05-22T22:00:19.211Z,5.20
2023-05-22T22:05:18.712Z,5.80
2023-05-22T22:10:18.660Z,5.40
2023-05-22T22:15:18.740Z,5.20
2023-05-22T22:20:42.402Z,5.20
2023-05-22T22:25:19.612Z,5.50
2023-05-22T22:30:18.454Z,6.00
2023-05-22T22:35:18.517Z,6.20
2023-05-22T22:40:18.368Z,6.30
2023-05-22T22:45:18.312Z,5.90
2023-05-22T22:50:18.245Z,5.90
2023-05-22T22:55:18.318Z,5.50
2023-05-22T23:00:18.152Z,5.60
2023-05-22T23:05:18.086Z,5.80
2023-05-22T23:10:18.017Z,5.60
2023-05-22T23:15:18.086Z,5.80
2023-05-22T23:20:17.909Z,5.60
2023-05-22T23:25:17.866Z,5.50
